createdAt,value
2023-05-16T00:00:06.605Z,12.10
2023-05-16T00:00:38.470Z,12.10
2023-05-16T00:01:10.300Z,12.10
2023-05-16T00:01:43.085Z,12.10
2023-05-16T00:02:16.106Z,12.10
2023-05-16T00:02:49.536Z,12.00
2023-05-16T00:03:22.421Z,12.00
2023-05-16T00:03:54.321Z,12.00
2023-05-16T00:04:26.442Z,12.00
2023-05-16T00:04:59.818Z,11.90
2023-05-16T00:05:31.744Z,11.90
2023-05-16T00:06:03.870Z,12.00
2023-05-16T00:06:37.026Z,12.00
2023-05-16T00:07:08.808Z,12.00
2023-05-16T00:07:42.937Z,12.00
2023-05-16T00:08:15.699Z,12.00
2023-05-16T00:08:48.443Z,12.00
2023-05-16T00:09:20.552Z,12.00
2023-05-16T00:09:53.321Z,12.00
2023-05-16T00:10:26.224Z,12.00
2023-05-16T00:10:58.149Z,12.00
2023-05-16T00:11:30.981Z,12.00
2023-05-16T00:12:02.913Z,12.00
2023-05-16T00:12:36.648Z,12.00
2023-05-16T00:13:09.801Z,12.00
2023-05-16T00:13:42.379Z,12.00
2023-05-16T00:14:15.000Z,11.90
2023-05-16T00:14:47.942Z,11.90
2023-05-16T00:15:23.274Z,11.90
2023-05-16T00:15:56.159Z,11.90
2023-05-16T00:16:29.830Z,11.90
2023-05-16T00:17:04.756Z,11.90
2023-05-16T00:17:36.936Z,11.80
2023-05-16T00:18:10.218Z,11.90
2023-05-16T00:18:45.586Z,11.80
2023-05-16T00:19:17.747Z,11.90
2023-05-16T00:19:49.806Z,11.90
2023-05-16T00:20:24.803Z,11.90
2023-05-16T00:20:56.963Z,11.90
2023-05-16T00:21:28.794Z,11.90
2023-05-16T00:22:01.764Z,11.90
2023-05-16T00:22:33.693Z,11.90
2023-05-16T00:23:05.531Z,11.90
2023-05-16T00:23:38.587Z,12.00
2023-05-16T00:24:10.446Z,12.00
2023-05-16T00:24:42.347Z,11.90
2023-05-16T00:25:15.142Z,11.90
2023-05-16T00:25:47.208Z,11.90
2023-05-16T00:26:19.001Z,11.90
2023-05-16T00:26:51.813Z,11.90
2023-05-16T00:27:23.621Z,11.90
2023-05-16T00:27:55.546Z,11.90
2023-05-16T00:28:28.325Z,12.00
2023-05-16T00:29:00.179Z,11.90
2023-05-16T00:29:32.198Z,11.90
2023-05-16T00:30:06.460Z,11.90
2023-05-16T00:30:38.260Z,11.90
2023-05-16T00:31:10.120Z,11.90
2023-05-16T00:31:43.003Z,11.90
2023-05-16T00:32:15.311Z,11.90
2023-05-16T00:32:47.269Z,11.90
2023-05-16T00:33:21.388Z,11.90
2023-05-16T00:33:53.213Z,11.90
2023-05-16T00:34:25.371Z,11.90
2023-05-16T00:34:58.130Z,11.90
2023-05-16T00:35:30.198Z,11.90
2023-05-16T00:36:02.044Z,11.90
2023-05-16T00:36:35.837Z,11.90
2023-05-16T00:37:07.621Z,12.00
2023-05-16T00:37:39.489Z,12.00
2023-05-16T00:38:12.565Z,12.00
2023-05-16T00:38:44.464Z,12.00
2023-05-16T00:39:18.397Z,12.10
2023-05-16T00:39:50.246Z,12.00
2023-05-16T00:40:22.122Z,12.00
2023-05-16T00:40:53.994Z,12.00
2023-05-16T00:41:26.861Z,12.00
2023-05-16T00:41:58.862Z,12.00
2023-05-16T00:42:31.039Z,12.00
2023-05-16T00:43:03.762Z,12.00
2023-05-16T00:43:35.669Z,12.10
2023-05-16T00:44:07.459Z,12.10
2023-05-16T00:44:40.216Z,12.10
2023-05-16T00:45:12.235Z,12.10
2023-05-16T00:45:44.344Z,12.20
2023-05-16T00:46:17.138Z,12.10
2023-05-16T00:46:49.003Z,12.10
2023-05-16T00:47:21.031Z,12.20
2023-05-16T00:47:53.869Z,12.20
2023-05-16T00:48:27.428Z,12.20
2023-05-16T00:48:59.427Z,12.20
2023-05-16T00:49:32.314Z,12.20
2023-05-16T00:50:05.542Z,12.20
2023-05-16T00:50:37.425Z,12.30
2023-05-16T00:51:10.414Z,12.30
2023-05-16T00:51:42.477Z,12.20
2023-05-16T00:52:14.377Z,12.20
2023-05-16T00:52:47.204Z,12.20
2023-05-16T00:53:19.612Z,12.20
2023-05-16T00:53:52.869Z,12.20
2023-05-16T00:54:28.786Z,12.20
2023-05-16T00:55:01.388Z,12.20
2023-05-16T00:55:34.369Z,12.20
2023-05-16T00:56:07.184Z,12.20
2023-05-16T00:56:40.058Z,12.20
2023-05-16T00:57:12.028Z,12.20
2023-05-16T00:57:43.912Z,12.20
2023-05-16T00:58:17.530Z,12.20
2023-05-16T00:58:50.009Z,12.20
2023-05-16T00:59:22.294Z,12.20
2023-05-16T00:59:55.106Z,12.20
2023-05-16T01:00:28.393Z,12.20
2023-05-16T01:01:03.617Z,12.20
2023-05-16T01:01:36.769Z,12.20
2023-05-16T01:02:09.677Z,12.10
2023-05-16T01:02:42.078Z,12.10
2023-05-16T01:03:14.651Z,12.10
2023-05-16T01:03:49.355Z,12.10
2023-05-16T01:04:21.245Z,12.10
2023-05-16T01:04:53.164Z,12.10
2023-05-16T01:05:26.533Z,12.10
2023-05-16T01:05:58.781Z,12.10
2023-05-16T01:06:31.002Z,12.10
2023-05-16T01:07:03.876Z,12.10
2023-05-16T01:07:35.861Z,12.10
2023-05-16T01:08:07.694Z,12.10
2023-05-16T01:08:40.457Z,12.10
2023-05-16T01:09:12.781Z,12.10
2023-05-16T01:09:44.678Z,12.10
2023-05-16T01:10:17.625Z,12.20
2023-05-16T01:10:54.624Z,12.10
2023-05-16T01:11:33.548Z,12.10
2023-05-16T01:12:14.157Z,12.10
2023-05-16T01:12:57.784Z,12.10
2023-05-16T01:13:41.308Z,12.10
2023-05-16T01:14:28.730Z,12.10
2023-05-16T01:15:07.813Z,12.00
2023-05-16T01:15:47.338Z,12.00
2023-05-16T01:16:26.267Z,12.00
2023-05-16T01:17:08.129Z,12.00
2023-05-16T01:17:57.420Z,12.00
2023-05-16T01:18:36.201Z,12.00
2023-05-16T01:19:27.769Z,12.00
2023-05-16T01:20:12.065Z,12.00
2023-05-16T01:20:49.255Z,12.00
2023-05-16T01:21:36.264Z,11.90
2023-05-16T01:22:17.118Z,12.00
2023-05-16T01:23:02.705Z,11.90
2023-05-16T01:23:48.332Z,11.90
2023-05-16T01:24:27.474Z,11.90
2023-05-16T01:25:13.304Z,12.00
2023-05-16T01:25:58.015Z,11.90
2023-05-16T01:26:32.238Z,11.90
2023-05-16T01:27:06.951Z,11.90
2023-05-16T01:27:40.779Z,11.90
2023-05-16T01:28:14.707Z,11.90
2023-05-16T01:28:47.895Z,12.00
2023-05-16T01:29:19.944Z,12.00
2023-05-16T01:29:55.951Z,12.00
2023-05-16T01:30:33.541Z,12.00
2023-05-16T01:31:06.283Z,12.00
2023-05-16T01:31:38.206Z,12.00
2023-05-16T01:32:10.987Z,12.00
2023-05-16T01:32:43.214Z,12.00
2023-05-16T01:33:15.303Z,12.00
2023-05-16T01:33:48.637Z,12.00
2023-05-16T01:34:20.402Z,12.00
2023-05-16T01:34:52.576Z,12.00
2023-05-16T01:35:25.256Z,12.00
2023-05-16T01:36:04.762Z,12.00
2023-05-16T01:36:42.194Z,12.00
2023-05-16T01:37:29.819Z,12.00
2023-05-16T01:38:11.840Z,11.90
2023-05-16T01:38:54.569Z,11.90
2023-05-16T01:39:37.070Z,11.90
2023-05-16T01:40:12.773Z,11.90
2023-05-16T01:40:51.119Z,11.90
2023-05-16T01:41:28.606Z,11.90
2023-05-16T01:42:05.996Z,11.90
2023-05-16T01:42:43.288Z,11.90
2023-05-16T01:43:21.492Z,11.80
2023-05-16T01:43:59.286Z,11.80
2023-05-16T01:44:35.342Z,11.80
2023-05-16T01:45:15.067Z,11.80
2023-05-16T01:45:54.054Z,11.80
2023-05-16T01:46:31.359Z,11.80
2023-05-16T01:47:08.226Z,11.80
2023-05-16T01:47:42.649Z,11.80
2023-05-16T01:48:19.573Z,11.80
2023-05-16T01:48:54.032Z,11.80
2023-05-16T01:49:31.248Z,11.80
2023-05-16T01:50:09.357Z,11.80
2023-05-16T01:50:49.950Z,11.80
2023-05-16T01:51:24.871Z,11.80
2023-05-16T01:52:01.751Z,11.90
2023-05-16T01:52:38.657Z,11.90
2023-05-16T01:53:15.693Z,11.80
2023-05-16T01:53:50.811Z,11.80
2023-05-16T01:54:25.972Z,11.90
2023-05-16T01:54:59.150Z,11.80
2023-05-16T01:55:40.227Z,11.90
2023-05-16T01:56:16.589Z,11.90
2023-05-16T01:56:53.461Z,11.90
2023-05-16T01:57:29.224Z,11.90
2023-05-16T01:58:04.305Z,11.90
2023-05-16T01:58:37.510Z,11.90
2023-05-16T01:59:11.935Z,11.90
2023-05-16T01:59:45.572Z,11.90
2023-05-16T02:00:17.469Z,11.90
2023-05-16T02:00:50.276Z,11.90
2023-05-16T02:01:22.900Z,11.90
2023-05-16T02:01:56.884Z,11.90
2023-05-16T02:02:29.738Z,11.90
2023-05-16T02:03:01.677Z,11.90
2023-05-16T02:03:34.109Z,12.00
2023-05-16T02:04:07.030Z,11.90
2023-05-16T02:04:38.912Z,11.90
2023-05-16T02:05:10.718Z,12.00
2023-05-16T02:05:43.539Z,12.00
2023-05-16T02:06:15.314Z,12.00
2023-05-16T02:06:47.231Z,12.00
2023-05-16T02:07:20.192Z,12.00
2023-05-16T02:07:52.134Z,12.00
2023-05-16T02:08:24.405Z,12.00
2023-05-16T02:08:57.175Z,12.00
2023-05-16T02:09:28.987Z,12.00
2023-05-16T02:10:00.849Z,12.00
2023-05-16T02:10:33.624Z,12.00
2023-05-16T02:11:05.528Z,12.00
2023-05-16T02:11:37.371Z,12.00
2023-05-16T02:12:10.264Z,12.00
2023-05-16T02:12:43.556Z,12.00
2023-05-16T02:13:15.443Z,12.00
2023-05-16T02:13:47.241Z,12.00
2023-05-16T02:14:20.041Z,12.00
2023-05-16T02:14:52.158Z,11.90
2023-05-16T02:15:23.965Z,11.90
2023-05-16T02:15:56.723Z,11.90
2023-05-16T02:16:30.697Z,11.90
2023-05-16T02:17:02.585Z,11.90
2023-05-16T02:17:35.711Z,11.90
2023-05-16T02:18:07.665Z,11.90
2023-05-16T02:18:39.641Z,11.90
2023-05-16T02:19:11.459Z,11.90
2023-05-16T02:19:44.264Z,11.90
2023-05-16T02:20:16.903Z,11.90
2023-05-16T02:20:48.673Z,11.90
2023-05-16T02:21:21.442Z,11.90
2023-05-16T02:21:53.281Z,11.90
2023-05-16T02:22:25.096Z,11.90
2023-05-16T02:22:57.897Z,11.90
2023-05-16T02:23:29.800Z,11.90
2023-05-16T02:24:01.671Z,11.90
2023-05-16T02:24:34.448Z,11.90
2023-05-16T02:25:07.540Z,12.00
2023-05-16T02:25:39.320Z,11.90
2023-05-16T02:26:12.062Z,12.00
2023-05-16T02:26:43.898Z,12.00
2023-05-16T02:27:15.667Z,12.00
2023-05-16T02:27:50.211Z,12.00
2023-05-16T02:28:21.988Z,12.00
2023-05-16T02:28:54.296Z,12.00
2023-05-16T02:29:27.050Z,12.00
2023-05-16T02:29:58.859Z,12.00
2023-05-16T02:30:30.633Z,12.00
2023-05-16T02:31:04.381Z,12.00
2023-05-16T02:31:36.323Z,12.00
2023-05-16T02:32:08.668Z,12.10
2023-05-16T02:32:44.750Z,12.10
2023-05-16T02:33:16.577Z,12.10
2023-05-16T02:33:48.342Z,12.10
2023-05-16T02:34:21.073Z,12.10
2023-05-16T02:34:53.166Z,12.10
2023-05-16T02:35:25.795Z,12.00
2023-05-16T02:35:58.752Z,12.10
2023-05-16T02:36:30.944Z,12.10
2023-05-16T02:37:02.765Z,12.10
2023-05-16T02:37:35.583Z,12.10
2023-05-16T02:38:07.437Z,12.10
2023-05-16T02:38:39.248Z,12.10
2023-05-16T02:39:12.859Z,12.00
2023-05-16T02:39:44.699Z,12.00
2023-05-16T02:40:16.678Z,12.00
2023-05-16T02:40:48.505Z,12.00
2023-05-16T02:41:22.161Z,12.00
2023-05-16T02:41:53.983Z,12.00
2023-05-16T02:42:27.262Z,12.00
2023-05-16T02:43:01.439Z,12.00
2023-05-16T02:43:33.256Z,12.00
2023-05-16T02:44:05.446Z,12.00
2023-05-16T02:44:38.233Z,12.00
2023-05-16T02:45:10.861Z,12.00
2023-05-16T02:45:42.760Z,12.10
2023-05-16T02:46:23.099Z,12.10
2023-05-16T02:46:54.935Z,12.10
2023-05-16T02:47:26.851Z,12.10
2023-05-16T02:47:59.667Z,12.10
2023-05-16T02:48:31.879Z,12.20
2023-05-16T02:49:03.789Z,12.20
2023-05-16T02:49:35.654Z,12.20
2023-05-16T02:50:09.118Z,12.20
2023-05-16T02:50:40.971Z,12.20
2023-05-16T02:51:12.783Z,12.20
2023-05-16T02:51:45.781Z,12.20
2023-05-16T02:52:17.589Z,12.20
2023-05-16T02:52:49.425Z,12.20
2023-05-16T02:53:21.265Z,12.20
2023-05-16T02:53:56.885Z,12.20
2023-05-16T02:54:28.814Z,12.10
2023-05-16T02:55:20.182Z,12.10
2023-05-16T02:55:53.364Z,12.10
2023-05-16T02:56:26.134Z,12.10
2023-05-16T02:56:57.963Z,12.10
2023-05-16T02:57:30.757Z,12.10
2023-05-16T02:58:03.962Z,12.10
2023-05-16T02:58:35.845Z,12.10
2023-05-16T02:59:08.859Z,12.10
2023-05-16T02:59:40.754Z,12.10
2023-05-16T03:00:15.118Z,12.10
2023-05-16T03:00:49.010Z,12.20
2023-05-16T03:01:20.922Z,12.20
2023-05-16T03:01:52.821Z,12.20
2023-05-16T03:02:26.071Z,12.20
2023-05-16T03:02:58.223Z,12.20
2023-05-16T03:03:30.445Z,12.10
2023-05-16T03:04:03.416Z,12.10
2023-05-16T03:04:35.457Z,12.20
2023-05-16T03:05:07.900Z,12.20
2023-05-16T03:05:40.623Z,12.20
2023-05-16T03:06:12.572Z,12.20
2023-05-16T03:06:44.612Z,12.20
2023-05-16T03:07:17.770Z,12.20
2023-05-16T03:07:49.573Z,12.20
2023-05-16T03:08:21.506Z,12.20
2023-05-16T03:08:54.253Z,12.20
2023-05-16T03:09:26.127Z,12.10
2023-05-16T03:09:57.935Z,12.10
2023-05-16T03:10:29.807Z,12.10
2023-05-16T03:11:02.778Z,12.10
2023-05-16T03:11:36.759Z,12.00
2023-05-16T03:12:08.894Z,12.00
2023-05-16T03:12:41.659Z,12.00
2023-05-16T03:13:14.835Z,12.00
2023-05-16T03:13:46.778Z,12.00
2023-05-16T03:14:19.530Z,12.10
2023-05-16T03:14:51.688Z,12.10
2023-05-16T03:15:23.491Z,12.10
2023-05-16T03:15:56.438Z,12.10
2023-05-16T03:16:28.543Z,12.10
2023-05-16T03:17:00.786Z,12.10
2023-05-16T03:17:33.584Z,12.10
2023-05-16T03:18:05.698Z,12.10
2023-05-16T03:18:37.558Z,12.10
2023-05-16T03:19:10.448Z,12.10
2023-05-16T03:19:42.263Z,12.00
2023-05-16T03:20:14.170Z,12.00
2023-05-16T03:20:47.236Z,12.10
2023-05-16T03:21:19.061Z,12.00
2023-05-16T03:21:50.863Z,12.00
2023-05-16T03:22:23.614Z,12.10
2023-05-16T03:22:55.496Z,12.00
2023-05-16T03:23:27.356Z,12.00
2023-05-16T03:24:00.368Z,12.00
2023-05-16T03:24:32.248Z,12.00
2023-05-16T03:25:04.786Z,12.00
2023-05-16T03:25:37.787Z,12.00
2023-05-16T03:26:09.770Z,12.00
2023-05-16T03:26:42.529Z,12.00
2023-05-16T03:27:14.415Z,12.00
2023-05-16T03:27:46.203Z,12.00
2023-05-16T03:28:20.285Z,11.90
2023-05-16T03:28:52.287Z,11.90
2023-05-16T03:29:25.751Z,11.90
2023-05-16T03:29:57.558Z,11.90
2023-05-16T03:30:29.408Z,11.90
2023-05-16T03:31:01.224Z,12.00
2023-05-16T03:31:34.289Z,12.00
2023-05-16T03:32:06.421Z,12.00
2023-05-16T03:32:38.648Z,12.00
2023-05-16T03:33:11.499Z,12.00
2023-05-16T03:33:43.434Z,12.00
2023-05-16T03:34:15.293Z,12.00
2023-05-16T03:34:48.081Z,12.10
2023-05-16T03:35:19.928Z,12.10
2023-05-16T03:35:52.169Z,12.00
2023-05-16T03:36:25.404Z,12.00
2023-05-16T03:36:57.399Z,12.00
2023-05-16T03:37:29.278Z,12.00
2023-05-16T03:38:01.199Z,12.00
2023-05-16T03:38:34.038Z,12.00
2023-05-16T03:39:05.811Z,12.00
2023-05-16T03:39:37.619Z,12.00
2023-05-16T03:40:11.125Z,12.00
2023-05-16T03:40:43.968Z,12.00
2023-05-16T03:41:15.912Z,12.00
2023-05-16T03:41:47.767Z,12.00
2023-05-16T03:42:20.526Z,12.10
2023-05-16T03:42:52.392Z,12.10
2023-05-16T03:43:25.607Z,12.10
2023-05-16T03:43:58.368Z,12.10
2023-05-16T03:44:30.137Z,12.10
2023-05-16T03:45:01.946Z,12.10
2023-05-16T03:45:34.738Z,12.10
2023-05-16T03:46:06.602Z,12.10
2023-05-16T03:46:38.535Z,12.00
2023-05-16T03:47:11.511Z,12.00
2023-05-16T03:47:43.477Z,12.00
2023-05-16T03:48:15.454Z,11.80
2023-05-16T03:48:47.336Z,11.90
2023-05-16T03:49:20.901Z,11.90
2023-05-16T03:49:53.176Z,11.80
2023-05-16T03:50:25.530Z,11.80
2023-05-16T03:50:58.313Z,11.70
2023-05-16T03:51:30.433Z,11.70
2023-05-16T03:52:02.234Z,11.60
2023-05-16T03:52:35.046Z,11.60
2023-05-16T03:53:06.856Z,11.60
2023-05-16T03:53:38.675Z,11.60
2023-05-16T03:54:11.489Z,11.60
2023-05-16T03:54:43.255Z,11.70
2023-05-16T03:55:15.368Z,11.60
2023-05-16T03:55:48.830Z,11.70
2023-05-16T03:56:21.858Z,11.70
2023-05-16T03:56:53.700Z,11.70
2023-05-16T03:57:26.523Z,11.80
2023-05-16T03:57:58.314Z,11.80
2023-05-16T03:58:31.450Z,11.80
2023-05-16T03:59:04.214Z,11.80
2023-05-16T03:59:36.141Z,11.90
2023-05-16T04:00:08.912Z,11.90
2023-05-16T04:00:41.709Z,11.90
2023-05-16T04:01:13.939Z,11.90
2023-05-16T04:01:45.857Z,11.90
2023-05-16T04:02:19.135Z,11.90
2023-05-16T04:02:51.351Z,11.90
2023-05-16T04:03:28.412Z,11.80
2023-05-16T04:04:01.511Z,11.80
2023-05-16T04:04:33.284Z,11.80
2023-05-16T04:05:06.012Z,11.80
2023-05-16T04:05:38.860Z,11.80
2023-05-16T04:06:10.902Z,11.80
2023-05-16T04:06:42.729Z,11.90
2023-05-16T04:07:15.523Z,11.90
2023-05-16T04:07:47.580Z,11.90
2023-05-16T04:08:19.373Z,12.00
2023-05-16T04:08:52.136Z,12.00
2023-05-16T04:09:23.937Z,12.10
2023-05-16T04:09:55.854Z,12.10
2023-05-16T04:10:29.146Z,12.10
2023-05-16T04:11:00.926Z,12.20
2023-05-16T04:11:34.144Z,12.20
2023-05-16T04:12:07.722Z,12.20
2023-05-16T04:12:39.517Z,12.30
2023-05-16T04:13:11.335Z,12.30
2023-05-16T04:13:45.536Z,12.20
2023-05-16T04:14:17.442Z,12.30
2023-05-16T04:14:49.240Z,12.30
2023-05-16T04:15:22.016Z,12.20
2023-05-16T04:15:54.043Z,12.30
2023-05-16T04:16:25.870Z,12.30
2023-05-16T04:16:58.747Z,12.20
2023-05-16T04:17:30.665Z,12.30
2023-05-16T04:18:03.164Z,12.30
2023-05-16T04:18:36.030Z,12.30
2023-05-16T04:19:07.953Z,12.30
2023-05-16T04:19:39.805Z,12.20
2023-05-16T04:20:13.185Z,12.20
2023-05-16T04:20:47.511Z,12.20
2023-05-16T04:21:20.304Z,12.20
2023-05-16T04:21:52.348Z,12.20
2023-05-16T04:22:24.277Z,12.10
2023-05-16T04:22:57.042Z,12.10
2023-05-16T04:23:28.883Z,12.10
2023-05-16T04:24:01.074Z,12.10
2023-05-16T04:24:33.877Z,12.10
2023-05-16T04:25:06.851Z,12.10
2023-05-16T04:25:38.725Z,12.10
2023-05-16T04:26:11.549Z,12.10
2023-05-16T04:26:43.424Z,12.20
2023-05-16T04:27:15.286Z,12.10
2023-05-16T04:27:48.052Z,12.10
2023-05-16T04:28:19.842Z,12.10
2023-05-16T04:28:52.999Z,12.00
2023-05-16T04:29:25.876Z,12.00
2023-05-16T04:29:59.233Z,12.00
2023-05-16T04:30:32.080Z,12.00
2023-05-16T04:31:04.178Z,12.00
2023-05-16T04:31:37.033Z,12.00
2023-05-16T04:32:10.971Z,12.00
2023-05-16T04:32:43.163Z,12.00
2023-05-16T04:33:15.104Z,12.00
2023-05-16T04:33:47.891Z,11.90
2023-05-16T04:34:19.667Z,11.90
2023-05-16T04:34:54.101Z,11.90
2023-05-16T04:35:28.102Z,11.90
2023-05-16T04:36:00.217Z,11.80
2023-05-16T04:36:32.554Z,11.80
2023-05-16T04:37:05.231Z,11.80
2023-05-16T04:37:38.289Z,11.80
2023-05-16T04:38:10.132Z,11.80
2023-05-16T04:38:42.818Z,11.80
2023-05-16T04:39:15.594Z,11.80
2023-05-16T04:39:47.592Z,11.80
2023-05-16T04:40:19.504Z,11.70
2023-05-16T04:40:52.834Z,11.80
2023-05-16T04:41:25.243Z,11.80
2023-05-16T04:41:59.117Z,11.80
2023-05-16T04:42:31.858Z,11.80
2023-05-16T04:43:03.648Z,11.80
2023-05-16T04:43:35.758Z,11.80
2023-05-16T04:44:08.919Z,11.80
2023-05-16T04:44:42.186Z,11.80
2023-05-16T04:45:14.546Z,11.80
2023-05-16T04:45:47.102Z,11.80
2023-05-16T04:46:20.971Z,11.80
2023-05-16T04:46:53.397Z,11.80
2023-05-16T04:47:25.308Z,11.80
2023-05-16T04:47:58.367Z,11.80
2023-05-16T04:48:30.841Z,11.80
2023-05-16T04:49:02.743Z,11.80
2023-05-16T04:49:35.523Z,11.80
2023-05-16T04:50:08.988Z,11.80
2023-05-16T04:50:40.865Z,11.80
2023-05-16T04:51:13.639Z,11.80
2023-05-16T04:51:45.553Z,11.90
2023-05-16T04:52:17.340Z,11.90
2023-05-16T04:52:50.072Z,11.90
2023-05-16T04:53:21.921Z,11.90
2023-05-16T04:53:53.825Z,11.90
2023-05-16T04:54:26.888Z,11.90
2023-05-16T04:55:00.380Z,11.90
2023-05-16T04:55:32.270Z,11.90
2023-05-16T04:56:05.809Z,11.80
2023-05-16T04:56:37.579Z,11.80
2023-05-16T04:57:09.371Z,11.80
2023-05-16T04:57:42.305Z,11.80
2023-05-16T04:58:14.331Z,11.80
2023-05-16T04:58:46.288Z,11.80
2023-05-16T04:59:21.130Z,11.90
2023-05-16T04:59:52.926Z,11.90
2023-05-16T05:00:26.635Z,11.80
2023-05-16T05:01:33.360Z,11.80
2023-05-16T05:02:07.547Z,11.80
2023-05-16T05:02:39.970Z,11.80
2023-05-16T05:03:11.862Z,11.80
2023-05-16T05:03:47.599Z,11.80
2023-05-16T05:04:20.020Z,11.80
2023-05-16T05:04:52.874Z,11.90
2023-05-16T05:05:24.785Z,11.90
2023-05-16T05:05:56.627Z,11.90
2023-05-16T05:06:29.493Z,11.90
2023-05-16T05:07:01.285Z,11.90
2023-05-16T05:07:33.289Z,11.90
2023-05-16T05:08:07.041Z,11.90
2023-05-16T05:08:38.879Z,11.90
2023-05-16T05:09:10.993Z,11.90
2023-05-16T05:09:43.787Z,11.80
2023-05-16T05:10:15.705Z,11.80
2023-05-16T05:10:47.521Z,11.80
2023-05-16T05:11:20.949Z,11.80
2023-05-16T05:11:52.872Z,11.80
2023-05-16T05:12:25.121Z,11.80
2023-05-16T05:12:58.519Z,11.70
2023-05-16T05:13:30.777Z,11.70
2023-05-16T05:14:03.604Z,11.80
2023-05-16T05:14:37.707Z,11.80
2023-05-16T05:15:09.813Z,11.60
2023-05-16T05:15:41.620Z,11.80
2023-05-16T05:16:14.346Z,11.80
2023-05-16T05:16:46.152Z,11.80
2023-05-16T05:17:18.027Z,11.80
2023-05-16T05:17:50.865Z,11.70
2023-05-16T05:18:22.958Z,11.70
2023-05-16T05:18:54.894Z,11.70
2023-05-16T05:19:27.765Z,11.70
2023-05-16T05:20:01.784Z,11.60
2023-05-16T05:20:35.807Z,11.60
2023-05-16T05:21:07.616Z,11.50
2023-05-16T05:21:40.458Z,11.60
2023-05-16T05:22:12.277Z,11.50
2023-05-16T05:22:44.224Z,11.60
2023-05-16T05:23:16.999Z,11.50
2023-05-16T05:23:49.602Z,11.50
2023-05-16T05:24:21.382Z,11.50
2023-05-16T05:24:54.142Z,11.50
2023-05-16T05:25:26.947Z,11.50
2023-05-16T05:26:00.060Z,11.50
2023-05-16T05:26:31.906Z,11.50
2023-05-16T05:27:03.990Z,11.50
2023-05-16T05:27:36.743Z,11.50
2023-05-16T05:28:08.509Z,11.50
2023-05-16T05:28:43.775Z,11.50
2023-05-16T05:29:20.065Z,11.40
2023-05-16T05:29:54.217Z,11.40
2023-05-16T05:30:25.986Z,11.40
2023-05-16T05:30:58.804Z,11.30
2023-05-16T05:31:30.905Z,11.30
2023-05-16T05:32:02.869Z,11.40
2023-05-16T05:32:35.877Z,11.30
2023-05-16T05:33:07.715Z,11.30
2023-05-16T05:33:39.644Z,11.30
2023-05-16T05:34:12.425Z,11.30
2023-05-16T05:34:44.247Z,11.30
2023-05-16T05:35:16.265Z,11.20
2023-05-16T05:35:49.250Z,11.30
2023-05-16T05:36:21.069Z,11.30
2023-05-16T05:36:52.861Z,11.30
2023-05-16T05:37:25.698Z,11.30
2023-05-16T05:37:57.609Z,11.30
2023-05-16T05:38:29.570Z,11.30
2023-05-16T05:39:01.538Z,11.30
2023-05-16T05:39:34.573Z,11.40
2023-05-16T05:40:07.803Z,11.40
2023-05-16T05:40:39.589Z,11.40
2023-05-16T05:41:12.672Z,11.40
2023-05-16T05:41:44.962Z,11.40
2023-05-16T05:42:16.738Z,11.40
2023-05-16T05:42:49.566Z,11.40
2023-05-16T05:43:21.426Z,11.40
2023-05-16T05:43:54.252Z,11.40
2023-05-16T05:44:26.065Z,11.40
2023-05-16T05:45:00.201Z,11.40
2023-05-16T05:45:32.078Z,11.50
2023-05-16T05:46:04.190Z,11.50
2023-05-16T05:46:37.160Z,11.50
2023-05-16T05:47:09.358Z,11.50
2023-05-16T05:47:41.272Z,11.50
2023-05-16T05:48:14.414Z,11.50
2023-05-16T05:48:46.297Z,11.50
2023-05-16T05:49:18.165Z,11.50
2023-05-16T05:49:51.707Z,11.50
2023-05-16T05:50:23.776Z,11.50
2023-05-16T05:50:55.782Z,11.50
2023-05-16T05:51:28.712Z,11.60
2023-05-16T05:52:00.562Z,11.60
2023-05-16T05:52:33.518Z,11.70
2023-05-16T05:53:05.372Z,11.60
2023-05-16T05:53:37.193Z,11.60
2023-05-16T05:54:10.180Z,11.50
2023-05-16T05:54:42.101Z,11.60
2023-05-16T05:55:14.830Z,11.60
2023-05-16T05:55:46.994Z,11.60
2023-05-16T05:56:18.788Z,11.60
2023-05-16T05:56:51.605Z,11.70
2023-05-16T05:57:23.411Z,11.70
2023-05-16T05:57:55.404Z,11.70
2023-05-16T05:58:28.355Z,11.70
2023-05-16T05:59:00.206Z,11.70
2023-05-16T05:59:32.009Z,11.70
2023-05-16T06:00:07.463Z,11.70
2023-05-16T06:00:39.248Z,11.70
2023-05-16T06:01:12.300Z,11.70
2023-05-16T06:01:44.490Z,11.80
2023-05-16T06:02:16.399Z,11.70
2023-05-16T06:02:49.746Z,11.70
2023-05-16T06:03:21.682Z,11.70
2023-05-16T06:03:54.959Z,11.80
2023-05-16T06:04:26.775Z,11.80
2023-05-16T06:04:58.601Z,11.80
2023-05-16T06:05:31.635Z,11.80
2023-05-16T06:06:04.613Z,11.80
2023-05-16T06:06:37.044Z,11.80
2023-05-16T06:07:09.842Z,11.80
2023-05-16T06:07:41.698Z,11.80
2023-05-16T06:08:13.499Z,11.80
2023-05-16T06:08:49.400Z,11.90
2023-05-16T06:09:21.634Z,11.90
2023-05-16T06:09:53.464Z,11.90
2023-05-16T06:10:26.273Z,11.90
2023-05-16T06:10:58.090Z,12.00
2023-05-16T06:11:30.915Z,12.00
2023-05-16T06:12:04.043Z,12.00
2023-05-16T06:12:35.867Z,12.00
2023-05-16T06:13:08.626Z,12.00
2023-05-16T06:13:40.491Z,12.00
2023-05-16T06:14:12.380Z,12.00
2023-05-16T06:14:45.146Z,11.90
2023-05-16T06:15:18.370Z,12.00
2023-05-16T06:15:50.990Z,12.00
2023-05-16T06:16:26.369Z,12.10
2023-05-16T06:16:58.234Z,12.10
2023-05-16T06:17:31.345Z,12.20
2023-05-16T06:18:03.369Z,12.20
2023-05-16T06:18:35.373Z,12.20
2023-05-16T06:19:08.251Z,12.20
2023-05-16T06:19:40.130Z,12.20
2023-05-16T06:20:12.578Z,12.20
2023-05-16T06:20:45.342Z,12.20
2023-05-16T06:21:17.320Z,12.20
2023-05-16T06:21:50.053Z,12.20
2023-05-16T06:22:21.855Z,12.20
2023-05-16T06:22:53.638Z,12.20
2023-05-16T06:23:26.436Z,12.20
2023-05-16T06:23:58.256Z,12.30
2023-05-16T06:24:30.465Z,12.30
2023-05-16T06:25:03.398Z,12.30
2023-05-16T06:25:35.311Z,12.30
2023-05-16T06:26:08.095Z,12.30
2023-05-16T06:26:39.867Z,12.30
2023-05-16T06:27:11.665Z,12.30
2023-05-16T06:27:44.440Z,12.40
2023-05-16T06:28:16.270Z,12.30
2023-05-16T06:28:49.056Z,12.30
2023-05-16T06:29:20.926Z,12.30
2023-05-16T06:29:52.736Z,12.30
2023-05-16T06:30:26.843Z,12.20
2023-05-16T06:30:58.670Z,12.30
2023-05-16T06:31:31.339Z,12.40
2023-05-16T06:32:04.261Z,12.20
2023-05-16T06:32:36.208Z,12.20
2023-05-16T06:33:08.122Z,12.20
2023-05-16T06:33:40.956Z,12.20
2023-05-16T06:34:12.728Z,12.20
2023-05-16T06:34:44.625Z,12.20
2023-05-16T06:35:17.404Z,12.30
2023-05-16T06:35:49.264Z,12.30
2023-05-16T06:36:21.128Z,12.30
2023-05-16T06:36:53.899Z,12.40
2023-05-16T06:37:26.216Z,12.40
2023-05-16T06:37:58.145Z,12.40
2023-05-16T06:38:31.086Z,12.50
2023-05-16T06:39:03.377Z,12.50
2023-05-16T06:39:36.297Z,12.50
2023-05-16T06:40:08.938Z,12.50
2023-05-16T06:40:40.954Z,12.50
2023-05-16T06:41:13.774Z,12.60
2023-05-16T06:41:45.609Z,12.60
2023-05-16T06:42:19.179Z,12.60
2023-05-16T06:42:50.997Z,12.60
2023-05-16T06:43:23.113Z,12.60
2023-05-16T06:43:55.924Z,12.70
2023-05-16T06:44:27.896Z,12.70
2023-05-16T06:44:59.770Z,12.70
2023-05-16T06:45:33.902Z,12.70
2023-05-16T06:46:05.894Z,12.80
2023-05-16T06:46:38.283Z,12.80
2023-05-16T06:47:11.209Z,12.80
2023-05-16T06:47:43.102Z,12.80
2023-05-16T06:48:16.486Z,12.80
2023-05-16T06:48:48.441Z,12.80
2023-05-16T06:49:20.417Z,12.80
2023-05-16T06:49:53.252Z,12.80
2023-05-16T06:50:25.270Z,12.80
2023-05-16T06:50:57.592Z,12.80
2023-05-16T06:51:30.971Z,12.90
2023-05-16T06:52:03.034Z,12.90
2023-05-16T06:52:34.897Z,12.90
2023-05-16T06:53:07.756Z,12.90
2023-05-16T06:53:39.681Z,12.90
2023-05-16T06:54:11.512Z,12.90
2023-05-16T06:54:44.319Z,12.90
2023-05-16T06:55:16.818Z,13.00
2023-05-16T06:55:49.616Z,13.00
2023-05-16T06:56:21.602Z,12.90
2023-05-16T06:56:53.430Z,12.90
2023-05-16T06:57:26.250Z,12.90
2023-05-16T06:57:58.058Z,12.90
2023-05-16T06:58:29.901Z,12.90
2023-05-16T06:59:02.743Z,12.90
2023-05-16T06:59:35.043Z,12.90
2023-05-16T07:00:09.281Z,12.90
2023-05-16T07:00:43.980Z,12.90
2023-05-16T07:01:16.108Z,12.90
2023-05-16T07:01:49.004Z,12.80
2023-05-16T07:02:21.019Z,12.80
2023-05-16T07:02:53.191Z,12.80
2023-05-16T07:03:26.202Z,12.80
2023-05-16T07:03:58.388Z,12.80
2023-05-16T07:04:30.490Z,12.90
2023-05-16T07:05:03.291Z,12.90
2023-05-16T07:05:35.134Z,12.90
2023-05-16T07:06:08.398Z,12.90
2023-05-16T07:06:40.442Z,12.90